Time;durP1;ratioP1;P1;durP2;ratioP2;P2;SDS_P1;SDS_P2;PMS_P1;PMS_P2;Temp;Humidity;BMP_temperature;BMP_pressure;BME280_temperature;BME280_humidity;BME280_pressure;Samples;Min_cycle;Max_cycle;Signal;HPM_P1;HPM_P2
2023/10/23 00:02:23;;;;;;;6.50;4.03;;;15.10;58.20;;;;;;5070048;28;20426;-54
2023/10/23 00:04:49;;;;;;;3.50;3.20;;;15.10;58.30;;;;;;5062063;28;20445;-53
2023/10/23 00:07:15;;;;;;;5.03;3.57;;;15.10;58.30;;;;;;5056064;28;20185;-53
2023/10/23 00:09:40;;;;;;;4.40;3.90;;;14.70;59.10;;;;;;5057472;28;20212;-54
2023/10/23 00:12:07;;;;;;;5.80;4.10;;;14.60;59.50;;;;;;5057898;28;20205;-51
2023/10/23 00:14:33;;;;;;;6.93;4.23;;;14.60;59.50;;;;;;5057282;28;20737;-51
2023/10/23 00:16:58;;;;;;;4.43;3.83;;;14.70;59.30;;;;;;5055443;28;20560;-54
2023/10/23 00:19:24;;;;;;;4.30;3.57;;;14.80;59.20;;;;;;5060359;28;20625;-53
2023/10/23 00:21:50;;;;;;;3.87;3.47;;;14.70;59.10;;;;;;5066027;28;20194;-54
2023/10/23 00:24:16;;;;;;;4.87;3.70;;;14.60;59.30;;;;;;5066684;28;20233;-53
2023/10/23 00:26:41;;;;;;;4.03;3.53;;;14.60;59.30;;;;;;5068012;28;20442;-49
2023/10/23 00:29:07;;;;;;;5.77;4.00;;;14.50;59.50;;;;;;5065470;28;20209;-53
2023/10/23 00:31:32;;;;;;;6.33;3.87;;;14.30;59.60;;;;;;5058239;28;20188;-55
2023/10/23 00:33:58;;;;;;;5.40;3.47;;;14.20;60.30;;;;;;5056104;28;20196;-55
2023/10/23 00:36:23;;;;;;;3.87;3.40;;;13.90;60.80;;;;;;5055868;28;20219;-52
2023/10/23 00:38:49;;;;;;;4.57;3.50;;;13.90;61.30;;;;;;5058296;28;20230;-51
2023/10/23 00:41:14;;;;;;;5.13;4.20;;;14.00;61.20;;;;;;5055967;28;20189;-56
2023/10/23 00:43:40;;;;;;;6.50;3.50;;;14.10;60.50;;;;;;5055923;28;20617;-54
2023/10/23 00:46:19;;;;;;;7.20;3.90;;;14.20;59.90;;;;;;5066776;28;20588;-55
2023/10/23 00:48:47;;;;;;;3.80;3.00;;;14.20;59.80;;;;;;5066025;28;20574;-51
2023/10/23 00:51:14;;;;;;;4.77;3.70;;;14.20;59.60;;;;;;5068565;28;20988;-52
2023/10/23 00:53:42;;;;;;;3.83;3.40;;;14.20;59.40;;;;;;5066465;28;20453;-48
2023/10/23 00:56:09;;;;;;;3.87;3.43;;;14.00;59.80;;;;;;5067916;28;20984;-52
2023/10/23 00:58:40;;;;;;;4.03;3.63;;;13.90;60.10;;;;;;5066780;28;20454;-52
2023/10/23 01:01:11;;;;;;;4.00;3.43;;;13.90;60.70;;;;;;5067950;28;20458;-54
2023/10/23 01:03:41;;;;;;;7.13;5.87;;;13.90;60.40;;;;;;5064033;28;20523;-54
2023/10/23 01:06:06;;;;;;;8.07;6.10;;;13.90;60.70;;;;;;5068751;28;20512;-55
2023/10/23 01:08:32;;;;;;;6.10;4.43;;;13.90;60.60;;;;;;5066866;28;21040;-55
2023/10/23 01:10:59;;;;;;;5.20;4.20;;;13.80;60.50;;;;;;5067220;28;20184;-54
2023/10/23 01:13:26;;;;;;;5.23;4.00;;;13.80;60.70;;;;;;5066505;28;20819;-54
2023/10/23 01:15:51;;;;;;;5.47;3.60;;;13.90;60.50;;;;;;5067303;28;20485;-52
2023/10/23 01:18:17;;;;;;;4.80;3.30;;;14.00;60.00;;;;;;5061517;28;20852;-55
2023/10/23 01:20:44;;;;;;;3.60;3.30;;;14.00;59.70;;;;;;5067912;28;20184;-52
2023/10/23 01:23:10;;;;;;;4.40;3.47;;;14.00;59.80;;;;;;5059564;28;20757;-54
2023/10/23 01:25:36;;;;;;;5.43;2.97;;;13.90;59.90;;;;;;5058084;28;20458;-49
2023/10/23 01:28:02;;;;;;;5.07;3.80;;;13.90;60.20;;;;;;5059009;28;20532;-50
2023/10/23 01:30:28;;;;;;;5.83;3.77;;;13.80;60.20;;;;;;5058538;28;20188;-54
2023/10/23 01:32:54;;;;;;;5.40;3.33;;;13.80;60.40;;;;;;5063360;28;20213;-52
2023/10/23 01:35:20;;;;;;;3.63;3.33;;;13.70;60.50;;;;;;5058347;28;20474;-54
2023/10/23 01:37:47;;;;;;;5.20;3.30;;;13.70;60.70;;;;;;5056462;28;20574;-51
2023/10/23 01:40:13;;;;;;;3.30;2.90;;;13.60;61.40;;;;;;5058936;28;20187;-54
2023/10/23 01:42:39;;;;;;;12.50;3.67;;;13.50;60.90;;;;;;5062859;28;20856;-51
2023/10/23 01:45:05;;;;;;;4.40;4.00;;;13.50;61.10;;;;;;5057450;28;21116;-50
2023/10/23 01:47:30;;;;;;;5.63;3.13;;;13.40;60.90;;;;;;5060333;28;20279;-49
2023/10/23 01:49:56;;;;;;;4.40;3.57;;;13.30;61.60;;;;;;5056517;28;20582;-51
2023/10/23 01:52:22;;;;;;;4.47;3.17;;;13.30;61.90;;;;;;5060286;28;20219;-49
2023/10/23 01:54:50;;;;;;;4.50;3.70;;;13.30;62.00;;;;;;5055894;28;20214;-52
2023/10/23 01:57:16;;;;;;;5.40;3.80;;;13.20;61.90;;;;;;5055729;28;20578;-49
2023/10/23 01:59:41;;;;;;;9.13;3.50;;;13.20;62.20;;;;;;5066524;28;20544;-51
2023/10/23 02:02:07;;;;;;;4.77;3.07;;;13.10;62.00;;;;;;5067982;28;20202;-52
2023/10/23 02:04:34;;;;;;;5.20;2.90;;;13.10;62.70;;;;;;5062896;28;20175;-49
2023/10/23 02:07:00;;;;;;;3.53;3.23;;;13.00;62.80;;;;;;5059112;28;20187;-51
2023/10/23 02:09:26;;;;;;;4.90;2.90;;;13.00;62.50;;;;;;5058239;28;20468;-53
2023/10/23 02:11:52;;;;;;;7.03;2.80;;;13.10;62.10;;;;;;5056483;28;21093;-51
2023/10/23 02:14:17;;;;;;;5.47;3.03;;;13.10;62.20;;;;;;5059735;28;20196;-53
2023/10/23 02:16:43;;;;;;;6.33;3.30;;;13.10;62.40;;;;;;5056383;28;20264;-52
2023/10/23 02:19:08;;;;;;;4.77;2.57;;;13.00;62.20;;;;;;5056490;28;20212;-53
2023/10/23 02:21:34;;;;;;;6.07;3.00;;;13.10;62.60;;;;;;5057978;28;20176;-53
2023/10/23 02:24:00;;;;;;;6.70;3.47;;;13.10;62.30;;;;;;5056417;28;20318;-51
2023/10/23 02:26:25;;;;;;;5.77;3.23;;;12.90;62.40;;;;;;5064103;28;20438;-48
2023/10/23 02:28:51;;;;;;;3.80;2.83;;;12.80;62.90;;;;;;5053710;28;20212;-52
2023/10/23 02:31:17;;;;;;;5.90;3.73;;;12.80;62.90;;;;;;5061569;28;20257;-49
2023/10/23 02:33:42;;;;;;;5.70;3.53;;;12.80;63.10;;;;;;5062301;28;20186;-49
2023/10/23 02:36:08;;;;;;;3.63;3.20;;;12.70;63.40;;;;;;5060472;28;20211;-52
2023/10/23 02:38:34;;;;;;;4.70;3.50;;;12.40;64.10;;;;;;5060718;28;20645;-53
2023/10/23 02:40:59;;;;;;;4.20;3.53;;;12.20;65.10;;;;;;5053469;28;20253;-53
2023/10/23 02:43:25;;;;;;;3.27;2.97;;;12.20;65.90;;;;;;5056288;28;20303;-50
2023/10/23 02:45:50;;;;;;;4.50;3.43;;;12.30;65.30;;;;;;5064691;28;20322;-52
2023/10/23 02:48:19;;;;;;;6.03;3.00;;;12.10;66.00;;;;;;5065868;28;20261;-52
2023/10/23 02:50:55;;;;;;;5.20;3.03;;;12.10;66.70;;;;;;5064689;28;20184;-53
2023/10/23 02:53:21;;;;;;;4.83;3.10;;;12.30;66.10;;;;;;5065804;28;20783;-50
2023/10/23 02:55:46;;;;;;;5.33;3.23;;;12.40;65.10;;;;;;5068231;28;20480;-49
2023/10/23 02:58:12;;;;;;;4.93;3.60;;;12.50;64.40;;;;;;5070329;28;20473;-54
2023/10/23 03:00:38;;;;;;;4.97;3.63;;;12.20;64.90;;;;;;5070482;28;20188;-53
2023/10/23 03:03:04;;;;;;;5.67;2.90;;;11.90;66.20;;;;;;5070533;28;20711;-49
2023/10/23 03:05:30;;;;;;;3.10;2.80;;;11.90;66.30;;;;;;5067736;28;20525;-52
2023/10/23 03:07:56;;;;;;;5.77;3.70;;;11.90;66.20;;;;;;5069732;28;20175;-52
2023/10/23 03:10:21;;;;;;;5.70;3.33;;;11.90;66.40;;;;;;5070287;28;20180;-49
2023/10/23 03:12:47;;;;;;;3.73;2.60;;;12.00;65.60;;;;;;5067460;28;20192;-51
2023/10/23 03:15:14;;;;;;;4.93;3.63;;;12.00;66.10;;;;;;5069491;28;20195;-49
2023/10/23 03:17:39;;;;;;;6.00;3.37;;;12.00;65.70;;;;;;5059694;28;20188;-49
2023/10/23 03:20:06;;;;;;;5.00;3.10;;;11.90;65.90;;;;;;5059348;28;20804;-52
2023/10/23 03:22:32;;;;;;;3.30;2.87;;;11.80;66.50;;;;;;5064500;28;20880;-56
2023/10/23 03:24:59;;;;;;;4.03;3.00;;;11.60;67.00;;;;;;5062378;28;20441;-50
2023/10/23 03:27:24;;;;;;;6.60;3.20;;;11.70;67.20;;;;;;5062724;28;20438;-53
2023/10/23 03:29:50;;;;;;;3.83;3.53;;;11.70;67.10;;;;;;5058760;28;20441;-52
2023/10/23 03:32:15;;;;;;;3.97;3.43;;;11.60;67.40;;;;;;5065643;28;20190;-52
2023/10/23 03:34:41;;;;;;;3.00;2.80;;;11.70;67.40;;;;;;5063422;28;20207;-49
2023/10/23 03:37:06;;;;;;;3.27;2.70;;;11.60;67.50;;;;;;5060737;28;20707;-52
2023/10/23 03:39:32;;;;;;;4.77;3.50;;;11.70;67.60;;;;;;5057308;28;20683;-55
2023/10/23 03:41:57;;;;;;;5.80;3.80;;;11.70;66.80;;;;;;5065193;28;20180;-49
2023/10/23 03:44:23;;;;;;;9.23;3.20;;;11.70;66.70;;;;;;5062056;28;20185;-52
2023/10/23 03:46:48;;;;;;;7.93;3.20;;;11.80;66.00;;;;;;5055308;28;20196;-54
2023/10/23 03:49:14;;;;;;;5.40;3.20;;;11.90;65.50;;;;;;5060229;28;20211;-50
2023/10/23 03:51:39;;;;;;;5.97;3.30;;;11.90;64.90;;;;;;5056524;28;20180;-56
2023/10/23 03:54:05;;;;;;;4.07;2.80;;;11.90;65.40;;;;;;5060460;28;20197;-55
2023/10/23 03:56:31;;;;;;;4.13;3.30;;;11.80;65.30;;;;;;5059163;28;20215;-50
2023/10/23 03:58:56;;;;;;;3.30;3.00;;;11.90;65.00;;;;;;5066402;28;20208;-52
2023/10/23 04:01:22;;;;;;;5.57;2.77;;;12.00;64.90;;;;;;5069983;28;20192;-52
2023/10/23 04:03:48;;;;;;;4.10;3.07;;;12.00;64.50;;;;;;5064781;28;20854;-53
2023/10/23 04:06:13;;;;;;;4.20;3.00;;;11.90;64.10;;;;;;5059580;28;20524;-50
2023/10/23 04:08:39;;;;;;;5.87;3.20;;;11.80;64.80;;;;;;5056279;28;20231;-49
2023/10/23 04:11:04;;;;;;;2.93;2.57;;;11.80;64.80;;;;;;5060567;28;20191;-52
2023/10/23 04:13:32;;;;;;;4.60;3.07;;;11.70;65.00;;;;;;5058093;28;20192;-49
2023/10/23 04:15:58;;;;;;;9.13;3.43;;;11.50;65.30;;;;;;5059083;28;20212;-55
2023/10/23 04:18:27;;;;;;;3.27;2.53;;;11.30;66.80;;;;;;5065721;28;20469;-53
2023/10/23 04:21:09;;;;;;;3.90;2.87;;;11.30;66.50;;;;;;5069169;28;20183;-54
2023/10/23 04:23:36;;;;;;;6.23;2.80;;;11.40;66.50;;;;;;5069683;28;20454;-53
2023/10/23 04:26:02;;;;;;;4.13;3.27;;;11.20;66.70;;;;;;5069930;28;20430;-52
2023/10/23 04:28:28;;;;;;;3.63;2.93;;;11.20;67.00;;;;;;5064357;28;20953;-51
2023/10/23 04:30:55;;;;;;;3.30;3.00;;;11.40;66.60;;;;;;5053940;28;20180;-50
2023/10/23 04:33:21;;;;;;;4.87;2.83;;;11.50;65.50;;;;;;5058962;28;20191;-51
2023/10/23 04:35:56;;;;;;;2.80;2.60;;;11.50;65.30;;;;;;5054839;28;20513;-55
2023/10/23 04:38:22;;;;;;;3.70;3.40;;;11.10;66.20;;;;;;5056655;28;20466;-52
2023/10/23 04:40:50;;;;;;;3.57;2.90;;;11.20;66.50;;;;;;5064091;28;20449;-50
2023/10/23 04:43:16;;;;;;;5.30;3.07;;;11.10;66.40;;;;;;5059827;28;20444;-50
2023/10/23 04:45:42;;;;;;;5.20;3.70;;;11.20;67.00;;;;;;5067318;28;20846;-49
2023/10/23 04:48:08;;;;;;;5.60;3.10;;;11.10;66.10;;;;;;5068541;28;20572;-50
2023/10/23 04:50:34;;;;;;;3.47;2.80;;;11.00;67.10;;;;;;5067298;28;20342;-48
2023/10/23 04:53:00;;;;;;;3.90;2.70;;;10.90;67.10;;;;;;5066895;28;20454;-49
2023/10/23 04:55:26;;;;;;;3.93;2.90;;;10.90;67.70;;;;;;5065767;28;20535;-48
2023/10/23 04:57:52;;;;;;;4.20;3.20;;;11.10;67.10;;;;;;5068645;28;20312;-49
2023/10/23 05:00:20;;;;;;;10.30;3.00;;;11.30;66.20;;;;;;5067493;28;21136;-52
2023/10/23 05:02:46;;;;;;;3.20;2.60;;;11.30;65.40;;;;;;5066359;28;20194;-48
2023/10/23 05:05:12;;;;;;;4.60;3.10;;;11.30;64.60;;;;;;5067453;28;20541;-50
2023/10/23 05:07:37;;;;;;;4.40;3.40;;;11.20;64.70;;;;;;5068392;28;20180;-51
2023/10/23 05:10:04;;;;;;;9.83;3.40;;;10.90;66.40;;;;;;5068237;28;20229;-51
2023/10/23 05:12:29;;;;;;;3.50;2.67;;;10.70;67.60;;;;;;5065634;28;20602;-53
2023/10/23 05:14:55;;;;;;;4.90;3.17;;;10.50;68.50;;;;;;5059775;28;20434;-50
2023/10/23 05:17:21;;;;;;;12.33;3.60;;;10.80;68.20;;;;;;5056838;28;20219;-49
2023/10/23 05:19:47;;;;;;;5.53;2.67;;;11.00;69.20;;;;;;5059304;28;20204;-51
2023/10/23 05:22:13;;;;;;;4.30;3.20;;;11.20;69.90;;;;;;5056645;28;20523;-50
2023/10/23 05:24:38;;;;;;;3.40;3.03;;;11.50;69.20;;;;;;5057085;28;20192;-49
2023/10/23 05:27:04;;;;;;;2.80;2.60;;;11.70;67.70;;;;;;5055947;28;20184;-50
2023/10/23 05:29:29;;;;;;;4.43;3.00;;;11.70;67.30;;;;;;5055862;28;20200;-52
2023/10/23 05:31:55;;;;;;;5.80;3.27;;;11.70;66.60;;;;;;5055986;28;20191;-50
2023/10/23 05:34:20;;;;;;;4.17;2.93;;;11.80;67.10;;;;;;5062093;28;20765;-50
2023/10/23 05:36:47;;;;;;;5.50;3.07;;;12.00;66.20;;;;;;5063536;28;20242;-49
2023/10/23 05:39:13;;;;;;;3.20;2.90;;;12.10;65.10;;;;;;5068586;28;20639;-50
2023/10/23 05:41:38;;;;;;;4.83;3.73;;;12.30;64.10;;;;;;5067693;28;20446;-52
2023/10/23 05:44:04;;;;;;;3.87;2.90;;;12.40;62.40;;;;;;5066070;28;20271;-51
2023/10/23 05:46:30;;;;;;;3.50;3.20;;;12.60;62.30;;;;;;5071302;28;20179;-55
2023/10/23 05:48:55;;;;;;;3.80;3.00;;;12.60;61.20;;;;;;5067547;28;20208;-49
2023/10/23 05:51:21;;;;;;;4.80;4.40;;;12.50;60.60;;;;;;5067487;28;20188;-49
2023/10/23 05:53:47;;;;;;;4.70;3.30;;;12.60;60.70;;;;;;5065906;28;20298;-50
2023/10/23 05:56:12;;;;;;;6.30;4.10;;;12.60;60.20;;;;;;5066424;28;20564;-50
2023/10/23 05:58:38;;;;;;;5.37;3.30;;;12.50;59.90;;;;;;5067483;28;20298;-53
2023/10/23 06:01:08;;;;;;;3.90;3.50;;;12.40;60.60;;;;;;5067645;28;20186;-50
2023/10/23 06:03:34;;;;;;;2.90;2.60;;;12.40;60.20;;;;;;5066465;28;20188;-50
2023/10/23 06:05:59;;;;;;;5.03;3.63;;;12.40;60.10;;;;;;5066917;28;20504;-49
2023/10/23 06:08:25;;;;;;;3.77;3.20;;;12.50;59.80;;;;;;5068485;28;20930;-50
2023/10/23 06:10:51;;;;;;;5.03;2.70;;;12.70;60.30;;;;;;5067100;28;20171;-49
2023/10/23 06:13:17;;;;;;;11.10;3.53;;;12.50;59.70;;;;;;5062936;28;20633;-49
2023/10/23 06:15:43;;;;;;;4.67;3.20;;;12.50;59.80;;;;;;5057884;28;20603;-53
2023/10/23 06:18:08;;;;;;;4.90;3.30;;;12.60;59.20;;;;;;5058509;28;20227;-55
2023/10/23 06:20:34;;;;;;;4.77;3.40;;;12.70;58.80;;;;;;5060144;28;20484;-49
2023/10/23 06:23:00;;;;;;;3.47;3.17;;;12.60;58.50;;;;;;5067340;28;20195;-49
2023/10/23 06:25:29;;;;;;;3.93;3.07;;;12.50;58.50;;;;;;5065492;28;20195;-49
2023/10/23 06:27:55;;;;;;;4.47;3.03;;;12.10;59.40;;;;;;5061144;28;20177;-54
2023/10/23 06:30:21;;;;;;;3.30;3.00;;;11.90;60.40;;;;;;5062322;28;20511;-54
2023/10/23 06:32:46;;;;;;;3.10;2.80;;;11.50;62.30;;;;;;5069005;28;20195;-56
2023/10/23 06:35:12;;;;;;;5.60;3.30;;;11.50;63.90;;;;;;5058660;28;20433;-53
2023/10/23 06:37:37;;;;;;;5.93;3.17;;;11.40;63.40;;;;;;5065510;28;20647;-49
2023/10/23 06:40:04;;;;;;;3.93;3.53;;;11.40;63.50;;;;;;5067595;28;20413;-50
2023/10/23 06:42:30;;;;;;;5.10;3.57;;;11.60;64.00;;;;;;5070002;28;20223;-49
2023/10/23 06:44:57;;;;;;;6.67;4.20;;;11.80;62.70;;;;;;5072190;28;20457;-50
2023/10/23 06:47:22;;;;;;;5.50;4.00;;;11.50;63.10;;;;;;5071855;28;20176;-51
2023/10/23 06:49:48;;;;;;;5.07;3.23;;;11.70;63.60;;;;;;5071756;28;21010;-54
2023/10/23 06:52:13;;;;;;;8.33;3.77;;;11.90;63.00;;;;;;5071531;28;20186;-52
2023/10/23 06:54:39;;;;;;;7.97;3.87;;;12.30;62.50;;;;;;5071327;28;20203;-56
2023/10/23 06:57:08;;;;;;;9.50;3.70;;;12.70;61.40;;;;;;5070650;28;20211;-53
2023/10/23 06:59:37;;;;;;;6.03;3.30;;;13.00;59.90;;;;;;5071621;28;20208;-49
2023/10/23 07:02:02;;;;;;;5.40;3.50;;;12.70;59.90;;;;;;5071762;28;20434;-50
2023/10/23 07:04:28;;;;;;;3.60;3.30;;;12.40;60.80;;;;;;5071956;28;20426;-53
2023/10/23 07:06:55;;;;;;;4.73;3.70;;;12.60;61.00;;;;;;5069880;28;20507;-50
2023/10/23 07:09:21;;;;;;;3.87;3.47;;;12.80;60.20;;;;;;5071481;28;20204;-55
2023/10/23 07:11:50;;;;;;;3.33;3.03;;;12.70;60.40;;;;;;5071508;28;20475;-52
2023/10/23 07:14:16;;;;;;;3.40;2.53;;;12.60;61.20;;;;;;5072013;28;20217;-54
2023/10/23 07:16:42;;;;;;;5.60;3.83;;;12.50;61.60;;;;;;5071371;28;20557;-50
2023/10/23 07:19:08;;;;;;;6.70;4.17;;;12.60;61.70;;;;;;5070426;28;20822;-51
2023/10/23 07:21:34;;;;;;;5.73;3.40;;;12.60;61.60;;;;;;5071008;28;20172;-53
2023/10/23 07:23:59;;;;;;;4.67;3.20;;;12.70;61.30;;;;;;5071536;28;20414;-53
2023/10/23 07:26:25;;;;;;;4.40;3.47;;;12.70;61.50;;;;;;5071186;28;20849;-53
2023/10/23 07:28:51;;;;;;;4.73;3.17;;;12.80;61.50;;;;;;5070529;28;20420;-51
2023/10/23 07:31:17;;;;;;;5.23;3.33;;;12.90;61.10;;;;;;5071243;28;20675;-51
2023/10/23 07:33:43;;;;;;;4.10;3.20;;;12.70;61.00;;;;;;5070970;28;20705;-50
2023/10/23 07:36:13;;;;;;;4.00;3.53;;;12.70;61.80;;;;;;5068202;28;20957;-52
2023/10/23 07:38:41;;;;;;;4.60;3.73;;;12.90;61.80;;;;;;5068563;28;20453;-54
2023/10/23 07:41:07;;;;;;;3.93;3.43;;;12.90;61.80;;;;;;5069329;28;20793;-50
2023/10/23 07:43:33;;;;;;;7.47;3.43;;;13.00;61.90;;;;;;5070613;28;20439;-56
2023/10/23 07:46:04;;;;;;;3.07;2.60;;;13.10;61.50;;;;;;5071358;28;21521;-53
2023/10/23 07:48:30;;;;;;;6.30;3.87;;;13.20;61.20;;;;;;5070931;28;20277;-51
2023/10/23 07:50:58;;;;;;;5.87;3.73;;;13.20;61.10;;;;;;5070645;28;20414;-52
2023/10/23 07:53:24;;;;;;;3.87;3.47;;;12.90;61.90;;;;;;5069601;28;20430;-53
2023/10/23 07:55:49;;;;;;;4.40;3.87;;;12.90;62.40;;;;;;5070191;28;20477;-53
2023/10/23 07:58:15;;;;;;;6.33;3.70;;;12.90;63.20;;;;;;5068955;28;20204;-50
2023/10/23 08:00:41;;;;;;;8.93;4.23;;;13.00;63.30;;;;;;5067714;28;20189;-51
2023/10/23 08:03:06;;;;;;;7.10;3.93;;;13.20;62.90;;;;;;5060923;28;20443;-54
2023/10/23 08:05:32;;;;;;;5.60;3.93;;;13.20;62.80;;;;;;5065171;28;20195;-55
2023/10/23 08:07:57;;;;;;;6.73;3.40;;;13.00;62.20;;;;;;5067582;28;20184;-53
2023/10/23 08:10:23;;;;;;;5.70;3.80;;;13.00;63.40;;;;;;5064578;28;20218;-50
2023/10/23 08:12:48;;;;;;;3.70;2.97;;;13.10;63.90;;;;;;5069214;28;20713;-50
2023/10/23 08:15:15;;;;;;;4.00;3.60;;;13.30;64.00;;;;;;5062202;28;20187;-54
2023/10/23 08:17:40;;;;;;;3.80;3.10;;;13.50;62.90;;;;;;5064757;28;20180;-50
2023/10/23 08:20:07;;;;;;;5.47;3.50;;;13.10;63.50;;;;;;5068083;28;20449;-53
2023/10/23 08:22:32;;;;;;;3.00;2.67;;;13.10;64.50;;;;;;5068454;28;20203;-53
2023/10/23 08:24:58;;;;;;;4.77;3.57;;;13.30;64.20;;;;;;5064066;28;20434;-54
2023/10/23 08:27:24;;;;;;;5.17;2.17;;;13.60;63.70;;;;;;5066917;28;20184;-50
2023/10/23 08:29:50;;;;;;;3.83;2.20;;;13.70;64.40;;;;;;5067016;28;20743;-54
2023/10/23 08:32:16;;;;;;;4.50;2.80;;;14.00;64.10;;;;;;5065850;28;20468;-52
2023/10/23 08:34:42;;;;;;;3.57;2.40;;;14.20;63.50;;;;;;5063292;28;20183;-49
2023/10/23 08:37:08;;;;;;;3.57;2.50;;;14.50;62.80;;;;;;5066489;28;20227;-50
2023/10/23 08:39:33;;;;;;;5.20;3.00;;;14.60;61.60;;;;;;5067495;28;20287;-54
2023/10/23 08:42:00;;;;;;;3.50;2.80;;;14.70;60.90;;;;;;5067465;28;20812;-49
2023/10/23 08:44:26;;;;;;;4.90;2.80;;;14.70;59.90;;;;;;5067850;28;20199;-49
2023/10/23 08:46:52;;;;;;;6.07;3.20;;;14.90;59.80;;;;;;5062789;28;20442;-54
2023/10/23 15:00:15;;;;;;;13.97;4.00;;;18.50;58.50;;;;;;5065397;28;21034;-51
2023/10/23 15:02:41;;;;;;;2.40;2.17;;;18.30;58.90;;;;;;5064267;28;20477;-52
2023/10/23 15:05:07;;;;;;;4.10;2.40;;;18.30;59.20;;;;;;5058668;28;20863;-50
2023/10/23 15:07:33;;;;;;;3.70;2.23;;;18.40;59.20;;;;;;5059146;28;20199;-54
2023/10/23 15:09:58;;;;;;;3.83;2.43;;;18.20;59.40;;;;;;5060396;28;20454;-50
2023/10/23 15:12:25;;;;;;;2.73;2.10;;;17.90;59.70;;;;;;5065513;28;20183;-50
2023/10/23 15:14:51;;;;;;;3.17;2.20;;;17.80;60.20;;;;;;5067346;28;20180;-52
2023/10/23 15:17:18;;;;;;;4.80;2.40;;;17.90;60.20;;;;;;5063661;28;20489;-50
2023/10/23 15:19:43;;;;;;;3.67;2.33;;;17.90;60.30;;;;;;5061322;28;20208;-52
2023/10/23 15:22:09;;;;;;;4.10;1.90;;;17.70;60.10;;;;;;5056349;28;20446;-49
2023/10/23 15:24:34;;;;;;;2.80;2.40;;;17.70;60.30;;;;;;5063651;28;20199;-49
2023/10/23 15:27:00;;;;;;;2.37;2.17;;;17.80;60.20;;;;;;5066813;28;20219;-49
2023/10/23 15:29:25;;;;;;;5.10;2.40;;;17.80;59.80;;;;;;5065127;28;20402;-54
2023/10/23 15:31:52;;;;;;;4.80;2.03;;;17.90;59.80;;;;;;5060449;28;20815;-51
2023/10/23 15:34:17;;;;;;;3.30;2.00;;;17.90;59.80;;;;;;5062720;28;20735;-53
2023/10/23 15:36:43;;;;;;;3.63;2.40;;;18.00;60.30;;;;;;5060932;28;20473;-49
2023/10/23 15:39:08;;;;;;;7.53;2.20;;;18.10;59.80;;;;;;5051386;28;20678;-49
2023/10/23 15:41:35;;;;;;;4.10;2.70;;;17.90;59.90;;;;;;5058171;28;20180;-52
2023/10/23 15:44:00;;;;;;;5.17;2.80;;;17.70;60.80;;;;;;5053650;28;20179;-49
2023/10/23 15:46:26;;;;;;;2.20;2.00;;;17.60;62.00;;;;;;5061622;28;20937;-54
2023/10/23 15:48:51;;;;;;;4.60;2.70;;;17.70;62.00;;;;;;5063801;28;20207;-50
2023/10/23 15:51:17;;;;;;;2.50;2.30;;;17.70;62.00;;;;;;5071111;28;20434;-50
2023/10/23 15:53:42;;;;;;;4.30;2.30;;;17.70;62.30;;;;;;5052729;28;20183;-50
2023/10/23 15:56:08;;;;;;;4.10;2.13;;;17.70;62.30;;;;;;5056541;28;20208;-49
2023/10/23 15:58:37;;;;;;;3.37;3.00;;;17.50;62.80;;;;;;5055564;28;20231;-52
2023/10/23 16:01:03;;;;;;;4.03;2.60;;;17.50;63.00;;;;;;5048569;28;20671;-54
2023/10/23 16:03:31;;;;;;;2.93;2.43;;;17.40;63.00;;;;;;5046073;28;20580;-55
2023/10/23 16:06:01;;;;;;;4.00;3.03;;;17.20;63.80;;;;;;5045161;28;20446;-52
2023/10/23 16:08:27;;;;;;;5.40;2.70;;;17.20;64.10;;;;;;5045260;28;20458;-50
2023/10/23 16:10:52;;;;;;;4.60;2.27;;;17.10;64.40;;;;;;5062598;28;20434;-54
2023/10/23 16:13:18;;;;;;;3.97;2.30;;;16.80;65.70;;;;;;5066564;28;20180;-50
2023/10/23 16:15:45;;;;;;;4.73;2.60;;;17.00;65.30;;;;;;5064761;28;20199;-51
2023/10/23 16:18:12;;;;;;;4.27;2.70;;;17.10;65.10;;;;;;5064845;28;20254;-54
2023/10/23 16:20:38;;;;;;;3.37;2.20;;;17.20;64.40;;;;;;5062927;28;20442;-51
2023/10/23 16:23:07;;;;;;;4.00;2.53;;;17.20;64.00;;;;;;5065352;28;20944;-50
2023/10/23 16:25:43;;;;;;;4.50;2.43;;;17.50;63.80;;;;;;5067178;28;20450;-54
2023/10/23 16:28:10;;;;;;;2.90;2.70;;;17.40;63.50;;;;;;5067302;28;20545;-51
2023/10/23 16:30:37;;;;;;;3.93;2.50;;;17.40;63.80;;;;;;5064506;28;20438;-48
2023/10/23 16:33:02;;;;;;;3.70;2.70;;;17.40;64.10;;;;;;5069103;28;20813;-51
2023/10/23 16:35:28;;;;;;;4.07;2.97;;;17.50;63.80;;;;;;5068564;28;20459;-53
2023/10/23 16:37:55;;;;;;;4.10;2.80;;;17.80;62.80;;;;;;5053035;28;20550;-51
2023/10/23 16:40:21;;;;;;;3.53;3.17;;;17.90;61.90;;;;;;5057919;28;20446;-50
2023/10/23 16:42:47;;;;;;;3.23;2.93;;;18.20;61.10;;;;;;5054099;28;20442;-49
2023/10/23 16:45:13;;;;;;;5.80;3.00;;;18.10;60.80;;;;;;5063795;28;20483;-51
2023/10/23 16:47:39;;;;;;;3.57;3.27;;;17.70;61.70;;;;;;5065271;28;20437;-52
2023/10/23 16:50:06;;;;;;;7.23;3.30;;;17.40;63.00;;;;;;5066164;28;20476;-50
2023/10/23 16:52:34;;;;;;;5.33;2.90;;;17.30;63.00;;;;;;5065433;28;20196;-51
2023/10/23 16:55:00;;;;;;;3.23;2.93;;;17.40;62.90;;;;;;5067629;28;20473;-50
2023/10/23 16:57:26;;;;;;;3.20;2.73;;;17.60;62.10;;;;;;5058771;28;20478;-55
2023/10/23 16:59:51;;;;;;;4.23;2.67;;;17.60;61.40;;;;;;5057330;28;20711;-49
2023/10/23 17:02:17;;;;;;;3.33;3.07;;;17.60;61.50;;;;;;5066577;28;20521;-50
2023/10/23 17:04:42;;;;;;;4.80;3.20;;;17.60;61.90;;;;;;5066622;28;20184;-51
2023/10/23 17:07:08;;;;;;;3.90;2.73;;;17.80;61.40;;;;;;5056303;28;20314;-49
2023/10/23 17:09:34;;;;;;;4.37;2.60;;;17.80;61.10;;;;;;5062761;28;20275;-50
2023/10/23 17:11:59;;;;;;;3.40;3.13;;;17.80;61.20;;;;;;5059595;28;20195;-50
2023/10/23 17:14:25;;;;;;;3.57;3.03;;;18.00;60.70;;;;;;5063128;28;20180;-52
2023/10/23 17:16:50;;;;;;;4.30;3.13;;;18.10;59.90;;;;;;5064626;28;20215;-48
2023/10/23 17:19:16;;;;;;;7.03;3.90;;;18.30;59.60;;;;;;5068561;28;20295;-49
2023/10/23 17:21:41;;;;;;;3.67;3.37;;;18.40;59.20;;;;;;5064160;28;20269;-50
2023/10/23 17:24:07;;;;;;;3.80;3.50;;;18.60;58.90;;;;;;5062852;28;20313;-52
2023/10/23 17:26:32;;;;;;;4.40;4.00;;;18.70;58.40;;;;;;5064886;28;20338;-51
2023/10/23 17:28:59;;;;;;;7.20;3.90;;;18.90;58.10;;;;;;5068199;28;20206;-53
2023/10/23 17:31:25;;;;;;;6.20;3.90;;;18.90;57.70;;;;;;5064568;28;20199;-52
2023/10/23 17:33:50;;;;;;;5.43;3.80;;;19.00;57.50;;;;;;5068567;28;20507;-51
2023/10/23 17:36:18;;;;;;;4.00;3.70;;;19.00;57.30;;;;;;5065137;28;20481;-48
2023/10/23 17:38:44;;;;;;;4.57;4.17;;;19.00;57.20;;;;;;5061600;28;20199;-49
2023/10/23 17:41:17;;;;;;;3.93;3.43;;;19.00;57.00;;;;;;5062283;28;20975;-56
2023/10/23 17:43:43;;;;;;;7.23;4.50;;;19.00;57.10;;;;;;5056890;28;20235;-56
2023/10/23 17:46:11;;;;;;;6.03;4.77;;;19.10;56.80;;;;;;5066438;28;20467;-49
2023/10/23 17:48:37;;;;;;;4.10;3.80;;;19.10;56.60;;;;;;5062623;28;20523;-52
2023/10/23 17:51:08;;;;;;;5.23;3.90;;;19.20;56.50;;;;;;5067519;28;21005;-50
2023/10/23 17:53:37;;;;;;;4.17;3.27;;;19.20;56.70;;;;;;5064856;28;20434;-51
2023/10/23 17:56:09;;;;;;;6.60;3.37;;;19.10;56.70;;;;;;5061869;28;20491;-51
2023/10/23 17:58:38;;;;;;;5.30;3.67;;;19.20;56.80;;;;;;5063998;28;20471;-52
2023/10/23 18:01:11;;;;;;;4.20;3.50;;;19.10;56.80;;;;;;5061129;28;20430;-50
2023/10/23 18:03:37;;;;;;;3.00;2.80;;;19.20;56.90;;;;;;5066169;28;20975;-51
2023/10/23 18:06:03;;;;;;;3.97;3.57;;;19.20;56.80;;;;;;5065245;28;20494;-50
2023/10/23 18:08:32;;;;;;;4.90;4.40;;;19.10;56.80;;;;;;5064815;28;20454;-52
2023/10/23 18:10:58;;;;;;;3.60;3.30;;;19.10;56.90;;;;;;5064786;28;20921;-49
2023/10/23 18:13:24;;;;;;;3.43;3.13;;;19.10;56.80;;;;;;5066129;28;20450;-49
2023/10/23 18:15:49;;;;;;;3.57;3.27;;;19.20;56.90;;;;;;5064031;28;20487;-54
2023/10/23 18:18:15;;;;;;;7.97;3.50;;;19.20;56.80;;;;;;5062695;28;20203;-48
2023/10/23 18:20:41;;;;;;;4.40;2.70;;;19.10;56.80;;;;;;5061666;28;20230;-53
2023/10/23 18:23:07;;;;;;;3.67;2.97;;;19.10;56.90;;;;;;5062902;28;20195;-50
2023/10/23 18:25:32;;;;;;;3.33;3.03;;;19.10;56.90;;;;;;5056168;28;20443;-57
2023/10/23 18:27:58;;;;;;;4.30;3.33;;;19.00;56.90;;;;;;5065137;28;20696;-52
2023/10/23 18:30:25;;;;;;;4.47;3.03;;;19.00;56.90;;;;;;5066385;28;20670;-51
2023/10/23 18:32:51;;;;;;;3.40;3.10;;;19.00;56.90;;;;;;5064787;28;20192;-52
2023/10/23 18:35:16;;;;;;;3.53;3.23;;;19.00;56.90;;;;;;5071858;28;20461;-48
2023/10/23 18:37:42;;;;;;;4.03;3.20;;;19.10;57.10;;;;;;5069335;28;20211;-54
2023/10/23 18:40:07;;;;;;;3.17;2.83;;;19.00;57.20;;;;;;5069895;28;20219;-52
2023/10/23 18:42:35;;;;;;;2.87;2.60;;;19.10;57.40;;;;;;5070394;28;20215;-49
2023/10/23 18:45:04;;;;;;;3.77;2.67;;;19.10;57.40;;;;;;5068465;28;20180;-51
2023/10/23 18:47:31;;;;;;;3.20;2.90;;;19.10;57.30;;;;;;5068998;28;20449;-49
2023/10/23 18:49:59;;;;;;;3.40;2.60;;;19.10;57.30;;;;;;5067520;28;20532;-52
2023/10/23 18:52:25;;;;;;;3.43;3.20;;;19.10;57.20;;;;;;5066787;28;20451;-51